createdAt,value
2024-03-16T00:00:13.447Z,2.40
2024-03-16T00:02:47.461Z,2.50
2024-03-16T00:05:18.553Z,2.40
2024-03-16T00:07:48.911Z,2.47
2024-03-16T00:10:17.389Z,2.43
2024-03-16T00:12:45.813Z,2.40
2024-03-16T00:15:14.178Z,2.43
2024-03-16T00:17:43.082Z,2.43
2024-03-16T00:20:12.589Z,2.40
2024-03-16T00:22:49.259Z,2.40
2024-03-16T00:25:19.140Z,2.40
2024-03-16T00:27:49.916Z,2.40
2024-03-16T00:30:18.430Z,2.40
2024-03-16T00:32:48.594Z,2.40
2024-03-16T00:35:17.012Z,2.50
2024-03-16T00:37:46.526Z,2.40
2024-03-16T00:40:16.876Z,2.40
2024-03-16T00:42:46.323Z,2.40
2024-03-16T00:45:14.965Z,2.40
2024-03-16T00:47:44.151Z,2.43
2024-03-16T00:50:12.643Z,2.40
2024-03-16T00:52:41.060Z,2.40
2024-03-16T00:55:10.671Z,2.43
2024-03-16T00:57:39.245Z,2.40
2024-03-16T01:00:10.209Z,2.40
2024-03-16T01:02:38.731Z,2.40
2024-03-16T01:05:07.324Z,2.40
2024-03-16T01:07:35.712Z,2.40
2024-03-16T01:10:04.444Z,2.40
2024-03-16T01:12:35.076Z,2.40
2024-03-16T01:15:04.304Z,2.40
2024-03-16T01:17:32.767Z,2.40
2024-03-16T01:20:01.604Z,2.40
2024-03-16T01:22:30.090Z,2.43
2024-03-16T01:24:58.785Z,2.40
2024-03-16T01:27:27.273Z,2.40
2024-03-16T01:29:55.715Z,2.40
2024-03-16T01:32:24.206Z,2.43
2024-03-16T01:34:52.677Z,2.40
2024-03-16T01:37:21.307Z,2.50
2024-03-16T01:39:50.968Z,2.40
2024-03-16T01:42:19.392Z,2.40
2024-03-16T01:44:52.049Z,2.40
2024-03-16T01:47:20.494Z,2.40
2024-03-16T01:49:48.852Z,2.40
2024-03-16T01:52:17.323Z,2.40
2024-03-16T01:54:45.901Z,2.40
2024-03-16T01:57:14.360Z,2.40
2024-03-16T01:59:42.947Z,2.40
2024-03-16T02:02:12.667Z,2.47
2024-03-16T02:04:49.922Z,2.40
2024-03-16T02:07:21.145Z,2.43
2024-03-16T02:09:49.581Z,2.40
2024-03-16T02:12:18.095Z,2.40
2024-03-16T02:14:46.535Z,2.40
2024-03-16T02:17:14.917Z,2.43
2024-03-16T02:19:43.268Z,2.40
2024-03-16T02:22:11.826Z,2.40
2024-03-16T02:24:40.506Z,2.40
2024-03-16T02:27:09.074Z,2.40
2024-03-16T02:29:38.147Z,2.40
2024-03-16T02:32:07.566Z,2.40
2024-03-16T02:34:37.260Z,2.40
2024-03-16T02:37:05.840Z,2.40
2024-03-16T02:39:34.593Z,2.40
2024-03-16T02:42:03.708Z,2.60
2024-03-16T02:44:32.086Z,2.40
2024-03-16T02:47:00.486Z,2.40
2024-03-16T02:49:29.008Z,2.40
2024-03-16T02:51:58.705Z,2.40
2024-03-16T02:54:27.142Z,2.40
2024-03-16T02:56:55.628Z,2.40
2024-03-16T02:59:24.140Z,2.40
2024-03-16T03:01:52.588Z,2.40
2024-03-16T03:04:21.046Z,2.40
2024-03-16T03:06:49.518Z,2.43
2024-03-16T03:09:19.129Z,2.40
2024-03-16T03:11:47.562Z,2.40
2024-03-16T03:14:18.285Z,2.40
2024-03-16T03:16:46.876Z,2.43
2024-03-16T03:19:15.276Z,2.40
2024-03-16T03:21:43.732Z,2.40
2024-03-16T03:24:15.182Z,2.40
2024-03-16T03:26:43.565Z,2.40
2024-03-16T03:29:12.880Z,2.40
2024-03-16T03:31:41.278Z,2.40
2024-03-16T03:34:10.191Z,2.40
2024-03-16T03:36:45.189Z,2.40
2024-03-16T03:39:16.811Z,4.30
2024-03-16T03:41:45.297Z,2.40
2024-03-16T03:44:25.144Z,2.37
2024-03-16T03:46:55.978Z,2.40
2024-03-16T03:49:33.162Z,2.40
2024-03-16T03:52:05.446Z,2.40
2024-03-16T03:54:35.812Z,2.40
2024-03-16T03:57:05.181Z,2.40
2024-03-16T03:59:33.835Z,2.40
2024-03-16T04:02:02.372Z,2.40
2024-03-16T04:04:31.800Z,2.40
2024-03-16T04:07:00.338Z,2.40
2024-03-16T04:09:28.777Z,2.40
2024-03-16T04:11:57.212Z,2.40
2024-03-16T04:14:25.578Z,2.43
2024-03-16T04:16:53.923Z,2.40
2024-03-16T04:19:22.537Z,2.40
2024-03-16T04:21:54.763Z,2.40
2024-03-16T04:24:23.215Z,2.40
2024-03-16T04:26:51.581Z,2.40
2024-03-16T04:29:19.942Z,2.40
2024-03-16T04:31:48.262Z,2.40
2024-03-16T04:34:16.709Z,2.40
2024-03-16T04:36:45.134Z,2.40
2024-03-16T04:39:13.668Z,9.90
2024-03-16T04:41:42.015Z,7.70
2024-03-16T04:44:10.390Z,9.07
2024-03-16T04:46:38.733Z,10.27
2024-03-16T04:49:07.247Z,8.10
2024-03-16T04:51:35.695Z,6.57
2024-03-16T04:54:04.106Z,2.40
2024-03-16T04:56:32.530Z,2.40
2024-03-16T04:59:00.920Z,2.40
2024-03-16T05:01:29.351Z,2.40
2024-03-16T05:04:05.283Z,2.40
2024-03-16T05:06:34.754Z,2.40
2024-03-16T05:09:06.455Z,2.40
2024-03-16T05:11:34.943Z,2.40
2024-03-16T05:14:03.776Z,2.40
2024-03-16T05:16:32.136Z,2.40
2024-03-16T05:19:02.912Z,2.40
2024-03-16T05:21:33.344Z,2.40
2024-03-16T05:24:02.150Z,2.40
2024-03-16T05:26:32.715Z,2.40
2024-03-16T05:29:01.104Z,2.40
2024-03-16T05:31:29.467Z,2.40
2024-03-16T05:33:57.871Z,2.40
2024-03-16T05:36:26.425Z,2.40
2024-03-16T05:38:55.166Z,2.40
2024-03-16T05:41:23.862Z,2.40
2024-03-16T05:43:54.312Z,2.40
2024-03-16T05:46:23.160Z,2.40
2024-03-16T05:48:51.571Z,2.40
2024-03-16T05:51:19.970Z,2.40
2024-03-16T05:53:48.345Z,2.40
2024-03-16T05:56:17.013Z,2.40
2024-03-16T05:58:44.494Z,2.40
2024-03-16T06:01:12.964Z,2.40
2024-03-16T06:03:41.432Z,2.40
2024-03-16T06:06:09.907Z,2.40
2024-03-16T06:08:38.396Z,2.40
2024-03-16T06:11:07.007Z,2.40
2024-03-16T06:13:35.460Z,2.40
2024-03-16T06:16:04.702Z,2.40
2024-03-16T06:18:33.102Z,2.40
2024-03-16T06:21:01.527Z,2.40
2024-03-16T06:23:30.631Z,3.53
2024-03-16T06:26:05.041Z,2.40
2024-03-16T06:28:37.153Z,2.40
2024-03-16T06:31:11.757Z,2.40
2024-03-16T06:33:46.507Z,2.40
2024-03-16T06:36:15.014Z,2.40
2024-03-16T06:38:43.704Z,2.40
2024-03-16T06:41:12.082Z,2.40
2024-03-16T06:43:40.463Z,2.40
2024-03-16T06:46:12.859Z,2.40
2024-03-16T06:48:41.677Z,2.40
2024-03-16T06:51:10.042Z,2.40
2024-03-16T06:53:38.824Z,2.40
2024-03-16T06:56:08.443Z,2.40
2024-03-16T06:58:36.927Z,2.40
2024-03-16T07:01:08.240Z,2.40
2024-03-16T07:03:37.285Z,2.40
2024-03-16T07:06:07.760Z,2.40
2024-03-16T07:08:36.196Z,2.40
2024-03-16T07:11:04.754Z,2.40
2024-03-16T07:13:33.687Z,2.40
2024-03-16T07:16:02.097Z,2.40
2024-03-16T07:18:30.526Z,2.40
2024-03-16T07:21:00.321Z,2.40
2024-03-16T07:23:30.828Z,2.40
2024-03-16T07:25:59.684Z,2.40
2024-03-16T07:28:28.109Z,2.60
2024-03-16T07:30:58.034Z,2.40
2024-03-16T07:33:26.426Z,7.33
2024-03-16T07:35:54.874Z,6.97
2024-03-16T07:38:22.326Z,7.07
2024-03-16T07:40:50.756Z,7.43
2024-03-16T07:43:19.189Z,6.23
2024-03-16T07:45:55.098Z,9.07
2024-03-16T07:48:26.884Z,9.13
2024-03-16T07:51:01.154Z,6.10
2024-03-16T07:53:32.267Z,7.93
2024-03-16T07:56:00.668Z,10.90
2024-03-16T07:58:29.046Z,8.87
2024-03-16T08:00:57.531Z,6.50
2024-03-16T08:03:25.929Z,7.77
2024-03-16T08:05:54.780Z,9.60
2024-03-16T08:08:24.386Z,7.53
2024-03-16T08:10:55.814Z,8.07
2024-03-16T08:13:24.548Z,5.50
2024-03-16T08:15:54.628Z,6.90
2024-03-16T08:18:23.208Z,6.43
2024-03-16T08:20:51.814Z,8.00
2024-03-16T08:23:20.321Z,5.97
2024-03-16T08:25:49.801Z,7.47
2024-03-16T08:28:18.227Z,12.03
2024-03-16T08:30:46.702Z,11.60
2024-03-16T08:33:17.220Z,9.40
2024-03-16T08:35:46.767Z,7.30
2024-03-16T08:38:16.600Z,5.50
2024-03-16T08:40:45.109Z,6.50
2024-03-16T08:43:13.857Z,10.47
2024-03-16T08:45:42.579Z,7.30
2024-03-16T08:48:12.141Z,8.40
2024-03-16T08:50:40.746Z,8.83
2024-03-16T08:53:09.162Z,7.90
2024-03-16T08:55:37.613Z,8.50
2024-03-16T08:58:06.213Z,9.30
2024-03-16T09:00:34.856Z,8.83
2024-03-16T09:03:08.136Z,9.07
2024-03-16T09:05:37.489Z,6.60
2024-03-16T09:08:06.684Z,8.23
2024-03-16T09:10:37.479Z,6.70
2024-03-16T09:13:06.046Z,7.30
2024-03-16T09:15:35.048Z,10.67
2024-03-16T09:18:05.188Z,8.60
2024-03-16T09:20:33.699Z,9.37
2024-03-16T09:23:02.256Z,5.50
2024-03-16T09:25:31.479Z,6.70
2024-03-16T09:27:59.942Z,6.00
2024-03-16T09:30:28.450Z,7.13
2024-03-16T09:32:57.085Z,5.90
2024-03-16T09:35:27.424Z,5.20
2024-03-16T09:37:55.789Z,6.47
2024-03-16T09:40:24.440Z,5.97
